Time;durP1;ratioP1;P1;durP2;ratioP2;P2;SDS_P1;SDS_P2;PMS_P1;PMS_P2;Temp;Humidity;BMP_temperature;BMP_pressure;BME280_temperature;BME280_humidity;BME280_pressure;Samples;Min_cycle;Max_cycle;Signal;HPM_P1;HPM_P2
2023/01/18 00:02:19;;;;;;;10.98;1.33;;;;;;;6.11;91.66;97913.56;5071843;28;20093;-67
2023/01/18 00:04:44;;;;;;;10.45;1.20;;;;;;;6.06;91.93;97916.97;5073305;28;20021;-67
2023/01/18 00:07:10;;;;;;;12.50;1.20;;;;;;;6.15;91.60;97924.56;5073150;28;20040;-66
2023/01/18 00:09:35;;;;;;;7.55;1.17;;;;;;;6.07;91.55;97923.13;5073172;28;20032;-66
2023/01/18 00:12:01;;;;;;;9.57;1.38;;;;;;;6.07;91.28;97917.78;5072976;28;20115;-66
2023/01/18 00:14:26;;;;;;;8.63;1.02;;;;;;;6.19;90.81;97923.03;5071688;28;20039;-66
2023/01/18 00:16:52;;;;;;;9.57;1.00;;;;;;;6.05;90.91;97920.66;5070665;28;20063;-66
2023/01/18 00:19:17;;;;;;;9.57;1.30;;;;;;;6.16;90.44;97920.84;5071804;28;20071;-67
2023/01/18 00:21:43;;;;;;;10.63;1.27;;;;;;;6.13;90.50;97922.16;5072903;28;20493;-67
2023/01/18 00:24:13;;;;;;;10.60;1.33;;;;;;;6.15;90.46;97924.56;5074053;28;20020;-67
2023/01/18 00:26:40;;;;;;;13.68;1.27;;;;;;;5.97;90.51;97899.72;5070905;28;20051;-67
2023/01/18 00:29:09;;;;;;;11.57;2.08;;;;;;;6.25;89.98;97922.06;5073285;28;20050;-66
2023/01/18 00:31:34;;;;;;;8.35;1.10;;;;;;;6.14;90.36;97929.09;5073275;28;20024;-66
2023/01/18 00:34:00;;;;;;;7.18;1.17;;;;;;;6.20;90.25;97941.50;5072236;28;20058;-67
2023/01/18 00:36:26;;;;;;;12.50;1.30;;;;;;;6.24;89.72;97939.16;5072286;28;20496;-66
2023/01/18 00:38:52;;;;;;;8.48;1.08;;;;;;;6.04;90.09;97919.06;5073082;28;20051;-67
2023/01/18 00:41:19;;;;;;;13.43;1.40;;;;;;;6.09;89.92;97921.84;5072884;28;20028;-66
2023/01/18 00:43:45;;;;;;;11.18;1.63;;;;;;;6.29;89.75;97947.22;5073026;28;20016;-67
2023/01/18 00:46:13;;;;;;;7.47;1.13;;;;;;;6.27;89.34;97936.00;5072772;28;20030;-67
2023/01/18 00:48:40;;;;;;;16.67;1.40;;;;;;;6.28;89.56;97942.94;5071864;28;20036;-67
2023/01/18 00:51:07;;;;;;;11.88;1.10;;;;;;;6.27;89.55;97950.16;5072558;28;20089;-67
2023/01/18 00:53:34;;;;;;;10.45;1.05;;;;;;;6.22;89.17;97927.91;5071413;28;20036;-67
2023/01/18 00:55:59;;;;;;;8.82;1.17;;;;;;;6.41;89.01;97961.34;5072936;28;20028;-67
2023/01/18 00:58:25;;;;;;;7.47;0.95;;;;;;;6.39;89.00;97963.47;5071236;28;20039;-67
2023/01/18 01:00:51;;;;;;;10.05;1.02;;;;;;;6.30;88.93;97976.38;5071708;28;20414;-67
2023/01/18 01:03:18;;;;;;;8.63;1.38;;;;;;;6.32;89.28;97965.44;5072519;28;20395;-66
2023/01/18 01:08:27;;;;;;;11.48;1.08;;;;;;;6.38;88.71;97975.16;5071389;28;20521;-66
2023/01/18 01:11:07;;;;;;;6.43;0.90;;;;;;;6.23;89.23;97977.59;5072599;28;20107;-66
2023/01/18 01:27:13;;;;;;;8.07;1.13;;;;;;;6.32;88.26;97994.81;5075985;28;20035;-68
2023/01/18 01:29:38;;;;;;;9.30;1.05;;;;;;;6.31;88.48;97983.34;5075786;28;20340;-66
2023/01/18 01:32:05;;;;;;;13.13;1.20;;;;;;;6.23;88.49;97991.75;5075236;28;20028;-66
2023/01/18 01:34:30;;;;;;;9.77;1.60;;;;;;;6.21;89.09;98003.72;5075957;28;20165;-67
2023/01/18 01:36:56;;;;;;;7.28;1.52;;;;;;;6.24;88.69;98001.38;5075215;28;20504;-66
2023/01/18 01:39:22;;;;;;;9.50;1.60;;;;;;;6.27;88.74;98006.22;5075550;28;20039;-66
2023/01/18 01:41:48;;;;;;;8.40;1.10;;;;;;;6.27;88.77;98011.56;5075619;28;20040;-66
2023/01/18 01:44:16;;;;;;;7.45;1.20;;;;;;;6.30;88.30;98008.44;5075361;28;20066;-67
2023/01/18 01:46:52;;;;;;;10.73;1.15;;;;;;;6.38;88.29;98009.88;5074414;28;20454;-67
2023/01/18 01:49:45;;;;;;;8.75;1.17;;;;;;;6.34;88.40;98009.56;5075483;28;20120;-66
2023/01/18 01:52:19;;;;;;;8.50;1.20;;;;;;;6.34;88.31;98020.25;5084525;28;20410;-66
2023/01/18 01:55:00;;;;;;;11.05;1.30;;;;;;;6.37;87.85;98012.81;5076525;28;20055;-67
2023/01/18 01:58:09;;;;;;;8.35;1.42;;;;;;;6.43;87.93;98020.69;5076245;28;20017;-67
2023/01/18 02:00:34;;;;;;;8.57;1.13;;;;;;;6.26;88.49;98022.50;5069886;28;20071;-67
2023/01/18 02:03:06;;;;;;;12.93;1.45;;;;;;;6.28;87.66;98025.72;5075674;28;20025;-66
2023/01/18 02:05:39;;;;;;;8.98;1.20;;;;;;;6.29;87.91;98032.69;5074468;28;20036;-67
2023/01/18 02:08:10;;;;;;;9.52;1.02;;;;;;;6.37;87.54;98036.84;5074945;28;20066;-66
2023/01/18 02:10:36;;;;;;;7.63;1.08;;;;;;;6.35;87.14;98042.41;5075103;28;20406;-66
2023/01/18 02:13:03;;;;;;;6.43;1.17;;;;;;;6.24;87.54;98040.63;5074415;28;20028;-67
2023/01/18 02:15:50;;;;;;;7.13;1.45;;;;;;;6.14;87.23;98035.09;5074419;28;20040;-67
2023/01/18 02:18:24;;;;;;;8.18;1.10;;;;;;;6.08;87.59;98032.31;5073847;28;20119;-67
2023/01/18 02:21:09;;;;;;;7.80;1.08;;;;;;;6.11;87.07;98042.50;5075458;28;20387;-67
2023/01/18 02:23:55;;;;;;;7.82;0.90;;;;;;;6.09;86.81;98044.63;5075242;28;20028;-66
2023/01/18 02:26:23;;;;;;;6.63;1.15;;;;;;;6.01;87.12;98047.66;5074922;28;20025;-67
2023/01/18 02:29:12;;;;;;;4.68;0.73;;;;;;;5.89;87.63;98049.50;5075109;28;20021;-67
2023/01/18 02:31:57;;;;;;;5.95;0.90;;;;;;;5.96;86.72;98066.25;5074672;28;20055;-66
2023/01/18 02:34:23;;;;;;;9.60;1.08;;;;;;;6.02;86.69;98054.59;5075284;28;20020;-67
2023/01/18 02:37:14;;;;;;;12.07;1.17;;;;;;;5.98;87.34;98058.81;5075201;28;20115;-67
2023/01/18 02:39:54;;;;;;;10.27;1.25;;;;;;;6.02;86.69;98061.81;5072389;28;20079;-67
2023/01/18 02:48:14;;;;;;;8.68;1.23;;;;;;;5.79;86.83;98043.97;5074578;28;20164;-66
2023/01/18 02:50:40;;;;;;;11.57;1.25;;;;;;;5.92;86.86;98069.59;5073724;28;20069;-67
2023/01/18 02:53:09;;;;;;;6.88;1.00;;;;;;;5.97;86.42;98061.72;5073539;28;20113;-67
2023/01/18 02:55:56;;;;;;;4.85;1.00;;;;;;;6.02;86.22;98080.50;5074846;28;20035;-67
2023/01/18 02:58:25;;;;;;;5.63;1.27;;;;;;;6.07;86.01;98083.28;5074594;28;20032;-66
2023/01/18 03:01:17;;;;;;;5.03;0.80;;;;;;;6.11;86.13;98084.44;5074754;28;20093;-67
2023/01/18 03:03:47;;;;;;;9.25;1.10;;;;;;;6.12;85.42;98083.38;5068863;28;20036;-66
2023/01/18 03:06:13;;;;;;;9.32;1.73;;;;;;;5.85;86.10;98056.38;5074819;28;20387;-66
2023/01/18 03:08:44;;;;;;;6.57;1.10;;;;;;;6.00;86.34;98088.75;5073898;28;20032;-66
2023/01/18 03:11:19;;;;;;;7.35;0.88;;;;;;;6.00;86.38;98094.09;5095602;28;20037;-66
2023/01/18 03:13:47;;;;;;;6.22;0.90;;;;;;;5.94;86.88;98091.56;5093854;28;20005;-66
2023/01/18 03:16:39;;;;;;;7.00;0.82;;;;;;;5.94;86.37;98084.34;5075594;28;20072;-67
2023/01/18 03:22:04;;;;;;;11.07;1.30;;;;;;;6.05;86.05;98096.03;5074591;28;20097;-67
2023/01/18 03:24:34;;;;;;;5.15;0.70;;;;;;;6.04;86.11;98091.75;5073547;28;20559;-66
2023/01/18 03:35:18;;;;;;;5.15;1.08;;;;;;;5.95;85.53;98093.16;5073889;28;20066;-66
2023/01/18 03:37:46;;;;;;;10.52;1.77;;;;;;;6.04;85.51;98094.44;5073018;28;20057;-66
2023/01/18 03:40:22;;;;;;;6.22;0.95;;;;;;;5.94;85.00;98089.69;5073680;28;20029;-66
2023/01/18 03:42:56;;;;;;;8.13;0.80;;;;;;;5.99;85.04;98097.78;5073140;28;20028;-66
2023/01/18 03:45:36;;;;;;;7.57;0.80;;;;;;;6.04;84.93;98099.78;5071931;28;20024;-66
2023/01/18 03:48:02;;;;;;;8.18;1.05;;;;;;;5.92;85.69;98101.63;5074249;28;20059;-67
2023/01/18 03:51:01;;;;;;;3.65;0.60;;;;;;;5.89;85.91;98089.53;5038383;28;20058;-67
2023/01/18 03:54:05;;;;;;;6.47;1.02;;;;;;;5.82;85.86;98091.53;5074366;28;20024;-66
2023/01/18 03:56:51;;;;;;;5.00;0.60;;;;;;;5.88;85.36;98095.94;5072995;28;20071;-66
2023/01/18 03:59:18;;;;;;;6.10;0.95;;;;;;;5.82;85.36;98080.84;5073386;28;20159;-67
2023/01/18 04:01:46;;;;;;;6.38;0.93;;;;;;;5.84;85.45;98086.78;5073502;28;20505;-66
2023/01/18 04:04:12;;;;;;;7.13;1.17;;;;;;;5.84;85.54;98094.78;5071938;28;20020;-66
2023/01/18 04:06:37;;;;;;;6.63;0.82;;;;;;;5.93;85.08;98090.75;5072276;28;20040;-66
2023/01/18 04:09:03;;;;;;;9.43;1.23;;;;;;;5.85;85.52;98104.41;5072181;28;20055;-66
2023/01/18 04:11:28;;;;;;;6.88;0.85;;;;;;;5.82;85.00;98097.69;5072235;28;20372;-67
2023/01/18 04:13:54;;;;;;;8.55;1.80;;;;;;;5.56;86.02;98093.69;5072260;28;20432;-66
2023/01/18 04:16:19;;;;;;;13.13;0.93;;;;;;;5.70;85.74;98114.78;5073255;28;20045;-67
2023/01/18 04:18:44;;;;;;;4.95;0.90;;;;;;;5.63;85.47;98090.88;5072696;28;20066;-67
2023/01/18 04:21:10;;;;;;;9.50;1.42;;;;;;;5.69;85.53;98111.25;5054637;28;20070;-66
2023/01/18 04:23:35;;;;;;;6.28;1.00;;;;;;;5.89;84.80;98118.91;5070819;28;20445;-66
2023/01/18 04:26:01;;;;;;;7.10;1.08;;;;;;;5.73;85.73;98106.28;5073541;28;20499;-66
2023/01/18 04:28:27;;;;;;;7.38;0.80;;;;;;;5.77;85.33;98110.13;5073013;28;20032;-66
2023/01/18 04:30:54;;;;;;;5.07;0.95;;;;;;;5.87;84.86;98116.47;5073395;28;20024;-66
2023/01/18 04:33:21;;;;;;;5.70;0.98;;;;;;;5.91;85.02;98108.81;5065509;28;20029;-64
2023/01/18 04:35:47;;;;;;;5.53;0.70;;;;;;;5.93;84.44;98112.09;5094258;28;20020;-67
2023/01/18 04:38:13;;;;;;;4.85;0.82;;;;;;;5.93;84.54;98113.94;5084303;28;20032;-66
2023/01/18 04:40:39;;;;;;;6.32;0.90;;;;;;;5.83;84.57;98102.00;5074846;28;20487;-66
2023/01/18 04:43:04;;;;;;;9.20;1.10;;;;;;;5.97;84.81;98101.75;5076602;28;20032;-66
2023/01/18 04:45:30;;;;;;;4.82;0.80;;;;;;;5.92;84.54;98107.75;5073058;28;20082;-66
2023/01/18 04:47:55;;;;;;;9.50;1.05;;;;;;;5.71;85.22;98095.03;5071871;28;20020;-67
2023/01/18 04:50:21;;;;;;;7.72;0.95;;;;;;;5.83;85.00;98107.31;5071361;28;20664;-67
2023/01/18 04:52:47;;;;;;;7.07;1.05;;;;;;;5.92;84.37;98098.94;5072244;28;20020;-67
2023/01/18 04:55:14;;;;;;;3.45;0.70;;;;;;;5.78;84.71;98085.06;5072518;28;20090;-66
2023/01/18 04:57:44;;;;;;;7.57;0.82;;;;;;;5.93;84.60;98112.09;5072440;28;20032;-66
2023/01/18 05:00:15;;;;;;;9.90;1.17;;;;;;;6.00;83.99;98106.63;5071113;28;20035;-65
2023/01/18 05:02:41;;;;;;;5.25;0.80;;;;;;;5.86;84.25;98116.69;5071815;28;20487;-65
2023/01/18 05:05:07;;;;;;;7.68;0.93;;;;;;;5.95;84.45;98125.19;5071165;28;20043;-65
2023/01/18 05:07:33;;;;;;;7.00;0.75;;;;;;;5.93;83.94;98117.44;5070463;28;20039;-67
2023/01/18 05:10:02;;;;;;;5.35;1.23;;;;;;;5.44;84.25;98050.19;5069187;28;20059;-66
2023/01/18 05:12:28;;;;;;;6.68;0.70;;;;;;;6.02;84.45;98120.53;5072632;28;20123;-65
2023/01/18 05:14:54;;;;;;;6.32;0.70;;;;;;;6.06;84.11;98130.53;5072056;28;20029;-64
2023/01/18 05:17:19;;;;;;;7.00;0.80;;;;;;;6.06;84.02;98121.69;5071370;28;20065;-65
2023/01/18 05:19:50;;;;;;;3.85;0.68;;;;;;;5.93;84.44;98133.44;5071442;28;20391;-64
2023/01/18 05:22:15;;;;;;;7.38;0.80;;;;;;;5.89;84.60;98137.59;5072143;28;20249;-64
2023/01/18 05:24:41;;;;;;;6.15;0.77;;;;;;;5.88;84.54;98138.63;5072075;28;20557;-64
2023/01/18 05:27:06;;;;;;;6.32;0.88;;;;;;;5.93;84.26;98138.78;5070850;28;20525;-65
2023/01/18 05:29:32;;;;;;;4.40;0.55;;;;;;;6.03;83.67;98128.31;5072722;28;20020;-66
2023/01/18 05:31:57;;;;;;;3.70;0.55;;;;;;;5.74;84.91;98131.94;5070895;28;20039;-65
2023/01/18 05:34:23;;;;;;;1.45;0.30;;;;;;;5.87;84.16;98142.34;5073374;28;20036;-65
2023/01/18 05:36:48;;;;;;;3.00;0.43;;;;;;;5.97;83.50;98139.94;5073060;28;20154;-65
2023/01/18 05:39:13;;;;;;;2.47;0.40;;;;;;;5.93;84.02;98136.13;5057163;28;20119;-66
2023/01/18 05:41:39;;;;;;;2.42;0.47;;;;;;;6.07;83.42;98131.34;5072387;28;20052;-65
2023/01/18 05:44:04;;;;;;;2.13;0.40;;;;;;;6.12;82.87;98136.75;5071218;28;20025;-65
2023/01/18 05:46:30;;;;;;;3.95;0.60;;;;;;;6.16;82.94;98139.78;5037450;28;20028;-65
2023/01/18 05:48:57;;;;;;;6.03;0.73;;;;;;;6.06;83.62;98132.34;5071158;28;20163;-66
2023/01/18 05:51:22;;;;;;;3.00;0.40;;;;;;;6.04;83.78;98134.47;5071642;28;20071;-66
2023/01/18 05:53:48;;;;;;;3.85;0.47;;;;;;;6.13;83.66;98129.59;5072506;28;20458;-66
2023/01/18 05:56:14;;;;;;;3.47;0.32;;;;;;;6.16;83.73;98140.59;5054174;28;20043;-65
2023/01/18 05:58:39;;;;;;;2.90;0.75;;;;;;;6.14;84.16;98147.22;5091883;28;20052;-65
2023/01/18 06:01:07;;;;;;;1.75;0.38;;;;;;;6.18;83.99;98149.16;5092932;28;20033;-66
2023/01/18 06:03:33;;;;;;;5.75;0.85;;;;;;;6.03;84.98;98132.84;5077392;28;20032;-65
2023/01/18 06:05:58;;;;;;;3.30;0.40;;;;;;;6.15;85.12;98143.50;5078340;28;20024;-65
2023/01/18 06:08:24;;;;;;;6.68;0.70;;;;;;;5.99;85.62;98134.34;5076794;28;20510;-65
2023/01/18 06:10:54;;;;;;;4.80;1.20;;;;;;;6.01;85.70;98151.75;5075297;28;20024;-65
2023/01/18 06:13:23;;;;;;;8.43;0.60;;;;;;;6.13;86.11;98162.44;5075708;28;20047;-65
2023/01/18 06:15:50;;;;;;;2.42;0.65;;;;;;;6.25;85.82;98165.88;5073176;28;20041;-65
2023/01/18 06:18:16;;;;;;;5.13;0.70;;;;;;;6.20;85.90;98155.09;5073679;28;20467;-66
2023/01/18 06:20:42;;;;;;;5.55;0.60;;;;;;;6.19;86.59;98164.16;5073297;28;20074;-65
2023/01/18 06:23:07;;;;;;;7.45;0.80;;;;;;;6.23;86.93;98151.16;5054323;28;20036;-66
2023/01/18 06:25:33;;;;;;;5.50;0.57;;;;;;;6.31;86.52;98156.09;5053656;28;20028;-66
2023/01/18 06:27:58;;;;;;;6.07;0.50;;;;;;;6.19;87.56;98149.97;5053414;28;20021;-65
2023/01/18 06:30:24;;;;;;;4.95;0.85;;;;;;;6.26;87.89;98164.03;5053725;28;20029;-65
2023/01/18 06:32:49;;;;;;;5.82;0.77;;;;;;;6.30;87.21;98159.84;5055206;28;20036;-66
2023/01/18 06:35:15;;;;;;;7.35;0.60;;;;;;;6.25;87.53;98147.19;5054961;28;20033;-66
2023/01/18 06:37:40;;;;;;;8.90;0.90;;;;;;;6.28;87.43;98151.25;5055350;28;20033;-66
2023/01/18 06:40:08;;;;;;;7.57;0.70;;;;;;;6.29;87.92;98171.53;5053410;28;20035;-65
2023/01/18 06:42:33;;;;;;;4.10;0.60;;;;;;;6.10;88.81;98170.91;5053106;28;20381;-65
2023/01/18 06:44:58;;;;;;;5.65;0.70;;;;;;;6.13;89.01;98175.78;5054228;28;20081;-65
2023/01/18 06:47:25;;;;;;;5.43;0.73;;;;;;;6.11;89.28;98185.88;5056229;28;20590;-65
2023/01/18 06:49:50;;;;;;;8.43;0.93;;;;;;;6.05;89.59;98176.94;5055105;28;20147;-65
2023/01/18 06:52:16;;;;;;;9.48;1.92;;;;;;;5.88;90.76;98184.81;5036803;28;20016;-66
2023/01/18 06:54:43;;;;;;;6.43;0.82;;;;;;;6.04;89.93;98188.66;5054479;28;20476;-65
2023/01/18 06:57:09;;;;;;;3.42;0.60;;;;;;;5.96;89.95;98188.19;5053287;28;20036;-65
2023/01/18 06:59:35;;;;;;;4.80;0.68;;;;;;;5.91;90.70;98185.41;5052490;28;20487;-65
2023/01/18 07:02:00;;;;;;;7.32;0.75;;;;;;;5.86;90.42;98170.06;5053889;28;20044;-65
2023/01/18 07:04:26;;;;;;;6.22;0.70;;;;;;;5.86;90.59;98183.41;5055749;28;20017;-65
2023/01/18 07:06:52;;;;;;;4.10;0.60;;;;;;;5.93;90.58;98194.84;5054041;28;20419;-65
2023/01/18 07:09:17;;;;;;;5.93;0.90;;;;;;;5.83;91.16;98197.25;5056081;28;20032;-65
2023/01/18 07:11:43;;;;;;;12.82;1.20;;;;;;;5.85;90.93;98206.63;5054511;28;20382;-65
2023/01/18 07:14:12;;;;;;;6.10;1.00;;;;;;;5.73;91.59;98181.81;5052126;28;20036;-65
2023/01/18 07:16:38;;;;;;;8.63;1.05;;;;;;;5.83;91.54;98202.59;5070253;28;20045;-65
2023/01/18 07:19:04;;;;;;;5.18;0.90;;;;;;;5.64;91.52;98183.19;5064129;28;20033;-65
2023/01/18 07:21:30;;;;;;;8.48;0.73;;;;;;;5.59;92.99;98215.06;5056682;28;20029;-65
2023/01/18 07:23:57;;;;;;;7.25;0.70;;;;;;;5.69;92.21;98219.84;5060310;28;20399;-66
2023/01/18 07:26:23;;;;;;;9.52;0.90;;;;;;;5.72;91.88;98222.06;5055473;28;20055;-66
2023/01/18 07:28:49;;;;;;;12.25;1.80;;;;;;;5.50;91.81;98190.63;5054201;28;20029;-66
2023/01/18 07:31:16;;;;;;;6.82;0.85;;;;;;;5.60;92.39;98227.41;5051600;28;20036;-66
2023/01/18 07:33:41;;;;;;;6.45;0.90;;;;;;;5.59;92.38;98228.41;5052261;28;20387;-66
2023/01/18 07:36:09;;;;;;;9.02;1.50;;;;;;;5.71;91.83;98233.78;5050977;28;20115;-66
2023/01/18 07:38:36;;;;;;;8.77;1.05;;;;;;;5.53;93.60;98242.66;5052514;28;20009;-66
2023/01/18 07:41:07;;;;;;;7.35;0.73;;;;;;;5.44;94.08;98244.06;5050883;28;20040;-66
2023/01/18 07:43:33;;;;;;;8.35;1.35;;;;;;;5.36;94.10;98248.69;5052436;28;20480;-66
2023/01/18 07:46:02;;;;;;;9.10;0.98;;;;;;;5.41;94.13;98250.66;5052507;28;20024;-66
2023/01/18 07:48:28;;;;;;;12.60;0.95;;;;;;;5.36;94.67;98245.19;5051529;28;20051;-66
2023/01/18 07:51:02;;;;;;;7.68;1.30;;;;;;;5.36;94.16;98248.69;5052367;28;20029;-66
2023/01/18 07:53:29;;;;;;;9.65;1.20;;;;;;;5.41;94.24;98256.81;5053428;28;20033;-67
2023/01/18 07:56:01;;;;;;;14.40;1.33;;;;;;;5.41;94.95;98261.31;5053583;28;20071;-67
2023/01/18 07:58:28;;;;;;;12.00;1.30;;;;;;;5.33;95.35;98274.97;5054201;28;20072;-66
2023/01/18 08:00:53;;;;;;;12.65;1.30;;;;;;;5.37;95.29;98266.31;5052126;28;20050;-66
2023/01/18 08:03:19;;;;;;;10.50;1.30;;;;;;;5.50;95.21;98278.63;5053074;28;20414;-66
2023/01/18 08:05:45;;;;;;;14.40;1.20;;;;;;;5.56;94.68;98285.72;5053441;28;20024;-66
2023/01/18 08:08:15;;;;;;;10.55;1.20;;;;;;;5.45;95.95;98273.16;5053018;28;20047;-67
2023/01/18 08:10:42;;;;;;;10.80;1.30;;;;;;;5.46;96.09;98297.97;5051420;28;20044;-66
2023/01/18 08:13:09;;;;;;;11.57;1.15;;;;;;;5.49;96.03;98293.00;5051922;28;20025;-66
2023/01/18 08:15:35;;;;;;;16.45;1.73;;;;;;;5.51;94.92;98277.59;5053219;28;20032;-66
2023/01/18 08:18:02;;;;;;;6.22;1.30;;;;;;;5.54;96.13;98297.66;5052090;28;20076;-66
2023/01/18 08:20:29;;;;;;;12.88;1.25;;;;;;;5.68;95.15;98307.06;5053249;28;20067;-66
2023/01/18 08:22:56;;;;;;;12.73;1.50;;;;;;;5.63;96.30;98318.44;5052180;28;20028;-66
2023/01/18 08:25:22;;;;;;;12.50;1.65;;;;;;;5.70;95.58;98322.88;5053210;28;20032;-66
2023/01/18 08:27:48;;;;;;;12.23;2.03;;;;;;;5.85;95.05;98323.25;5052186;28;20041;-66
2023/01/18 08:30:13;;;;;;;17.30;2.08;;;;;;;5.79;95.50;98338.31;5053220;28;20037;-66
2023/01/18 08:32:39;;;;;;;11.38;1.65;;;;;;;5.69;96.56;98342.56;5056926;28;20088;-66
2023/01/18 08:35:05;;;;;;;18.38;2.85;;;;;;;5.81;97.08;98351.44;5072579;28;20029;-66
2023/01/18 08:37:31;;;;;;;15.20;2.33;;;;;;;5.86;96.74;98348.88;5067148;28;20406;-67
2023/01/18 08:39:57;;;;;;;11.25;1.70;;;;;;;5.82;96.37;98337.03;5052750;28;20033;-66
2023/01/18 08:42:22;;;;;;;12.18;1.58;;;;;;;5.93;96.20;98363.00;5057231;28;20029;-66
2023/01/18 08:44:48;;;;;;;13.75;2.25;;;;;;;5.89;96.81;98365.28;5055575;28;20464;-66
2023/01/18 08:47:15;;;;;;;20.05;2.00;;;;;;;5.97;96.80;98369.50;5051724;28;20039;-66
2023/01/18 08:49:40;;;;;;;13.27;2.45;;;;;;;6.02;96.14;98379.47;5051232;28;20119;-66
2023/01/18 08:52:06;;;;;;;12.75;1.65;;;;;;;5.98;96.02;98388.97;5052379;28;20064;-66
2023/01/18 08:54:31;;;;;;;10.18;1.92;;;;;;;6.01;96.19;98392.00;5052609;28;20437;-66
2023/01/18 08:56:57;;;;;;;12.30;1.38;;;;;;;5.88;95.89;98378.81;5051510;28;20032;-66
2023/01/18 08:59:22;;;;;;;15.18;1.40;;;;;;;6.11;95.67;98412.81;5051283;28;20031;-66
2023/01/18 09:01:48;;;;;;;22.25;1.88;;;;;;;6.04;96.35;98410.25;5053163;28;20100;-66
2023/01/18 09:04:14;;;;;;;15.30;2.00;;;;;;;5.93;97.02;98407.53;5052153;28;20120;-66
2023/01/18 09:06:39;;;;;;;20.50;1.88;;;;;;;5.99;96.41;98430.63;5054067;28;20112;-67
2023/01/18 09:09:05;;;;;;;15.63;1.98;;;;;;;6.18;95.90;98444.75;5052077;28;20028;-66
2023/01/18 09:11:30;;;;;;;10.98;1.60;;;;;;;6.18;95.80;98450.09;5050274;28;20473;-66
2023/01/18 09:13:58;;;;;;;15.77;1.75;;;;;;;6.18;95.94;98453.56;5051925;28;20112;-66
2023/01/18 09:16:23;;;;;;;15.93;1.60;;;;;;;6.16;95.64;98449.50;5052613;28;20078;-66
2023/01/18 09:18:49;;;;;;;11.52;1.65;;;;;;;6.08;96.28;98469.31;5051758;28;20025;-66
2023/01/18 09:21:16;;;;;;;13.27;1.70;;;;;;;6.18;96.27;98474.13;5052500;28;20092;-66
2023/01/18 09:23:42;;;;;;;11.63;1.40;;;;;;;6.23;96.57;98482.28;5050692;28;20430;-66
2023/01/18 09:26:15;;;;;;;9.98;1.17;;;;;;;6.29;96.46;98492.03;5052304;28;20033;-66
2023/01/18 09:28:43;;;;;;;18.48;1.75;;;;;;;6.35;95.87;98499.94;5051921;28;20036;-66
2023/01/18 09:31:10;;;;;;;9.38;1.20;;;;;;;6.43;95.88;98514.03;5051702;28;20428;-66
2023/01/18 09:33:36;;;;;;;8.13;1.25;;;;;;;6.26;96.71;98511.19;5050227;28;20061;-66
2023/01/18 09:36:05;;;;;;;11.15;1.13;;;;;;;6.25;96.83;98523.72;5053664;28;20114;-66
2023/01/18 09:38:31;;;;;;;10.00;1.50;;;;;;;6.39;96.20;98537.72;5055766;28;20024;-66
2023/01/18 09:40:57;;;;;;;11.60;1.30;;;;;;;6.43;95.75;98525.53;5055969;28;20017;-66
2023/01/18 09:43:33;;;;;;;8.20;1.10;;;;;;;6.28;96.80;98549.16;5056140;28;20029;-66
2023/01/18 09:45:58;;;;;;;9.23;1.00;;;;;;;6.24;96.35;98548.00;5055752;28;20029;-66
2023/01/18 09:48:36;;;;;;;9.30;1.10;;;;;;;6.35;96.04;98565.91;5055533;28;20040;-67
2023/01/18 09:51:08;;;;;;;6.93;1.30;;;;;;;6.29;95.91;98567.63;5055827;28;20399;-67
2023/01/18 09:53:37;;;;;;;7.50;1.08;;;;;;;6.27;96.37;98569.72;5061502;28;20024;-66
2023/01/18 09:56:19;;;;;;;11.60;1.48;;;;;;;6.37;95.93;98581.72;5064287;28;20061;-66
2023/01/18 09:59:00;;;;;;;14.20;1.67;;;;;;;6.43;95.73;98583.50;5057185;28;20037;-66
2023/01/18 10:01:31;;;;;;;13.90;1.83;;;;;;;6.35;95.44;98561.38;5060430;28;20053;-66
2023/01/18 10:04:20;;;;;;;13.18;2.15;;;;;;;6.53;95.33;98600.59;5056398;28;20028;-66
2023/01/18 10:06:48;;;;;;;10.68;2.08;;;;;;;6.54;95.33;98602.22;5055596;28;20037;-66
2023/01/18 10:09:27;;;;;;;13.10;1.45;;;;;;;6.21;95.94;98567.13;5055433;28;20484;-66
2023/01/18 10:11:59;;;;;;;11.57;1.80;;;;;;;6.49;95.50;98609.28;5054483;28;20037;-66
2023/01/18 10:14:46;;;;;;;15.63;2.00;;;;;;;6.61;95.26;98617.34;5053672;28;20037;-67
2023/01/18 10:17:21;;;;;;;11.27;1.33;;;;;;;6.58;95.28;98621.28;5054984;28;20127;-67
2023/01/18 10:19:48;;;;;;;18.30;1.90;;;;;;;6.70;94.63;98632.84;5053665;28;20020;-66
2023/01/18 10:22:29;;;;;;;11.80;1.58;;;;;;;6.74;94.40;98633.19;5053999;28;20088;-66
2023/01/18 10:25:13;;;;;;;10.45;1.50;;;;;;;6.68;94.16;98626.06;5053731;28;20110;-66
2023/01/18 10:27:51;;;;;;;12.65;1.73;;;;;;;6.81;94.33;98644.59;5053821;28;20484;-66
2023/01/18 10:30:19;;;;;;;25.83;3.47;;;;;;;6.85;94.64;98643.09;5055971;28;20471;-67
2023/01/18 10:32:57;;;;;;;11.57;1.83;;;;;;;6.94;94.46;98654.28;5055530;28;20028;-67
2023/01/18 10:35:44;;;;;;;8.02;1.05;;;;;;;6.99;93.94;98657.09;5053824;28;20028;-66
2023/01/18 10:38:14;;;;;;;14.27;1.30;;;;;;;7.10;93.76;98669.69;5054579;28;20033;-66
2023/01/18 10:40:42;;;;;;;14.65;1.52;;;;;;;7.25;93.28;98666.56;5055297;28;20040;-66
2023/01/18 10:43:13;;;;;;;11.25;1.40;;;;;;;7.37;92.67;98680.78;5054443;28;20020;-66
2023/01/18 10:45:39;;;;;;;15.15;1.90;;;;;;;7.26;93.23;98689.63;5054933;28;20399;-66
2023/01/18 10:48:19;;;;;;;15.10;1.88;;;;;;;7.34;92.66;98691.13;5054792;28;20036;-66
2023/01/18 10:50:53;;;;;;;12.75;1.50;;;;;;;7.25;92.76;98696.81;5054091;28;20021;-66
2023/01/18 10:53:30;;;;;;;17.38;1.90;;;;;;;7.09;93.20;98716.19;5054264;28;20024;-66
2023/01/18 10:56:24;;;;;;;11.13;1.20;;;;;;;6.89;94.05;98720.97;5054353;28;20025;-66
2023/01/18 10:58:50;;;;;;;16.33;1.70;;;;;;;6.96;92.95;98719.88;5050895;28;20037;-66
2023/01/18 11:01:23;;;;;;;11.40;1.50;;;;;;;6.81;93.45;98730.13;5054289;28;20120;-66
2023/01/18 11:03:57;;;;;;;9.60;1.58;;;;;;;6.78;93.61;98725.25;5053281;28;20029;-66
2023/01/18 11:06:24;;;;;;;14.13;2.15;;;;;;;6.75;93.91;98731.03;5053474;28;20502;-66
2023/01/18 11:08:50;;;;;;;12.60;1.48;;;;;;;6.84;93.39;98737.72;5054092;28;20025;-66
2023/01/18 11:14:27;;;;;;;16.30;1.75;;;;;;;6.92;92.65;98732.06;5053962;28;20428;-66
2023/01/18 11:17:01;;;;;;;10.30;1.60;;;;;;;6.83;92.89;98754.81;5053652;28;20059;-67
2023/01/18 11:19:27;;;;;;;10.13;1.27;;;;;;;6.74;93.28;98756.94;5053903;28;20100;-66
2023/01/18 11:21:53;;;;;;;10.43;1.20;;;;;;;6.86;92.71;98761.56;5053821;28;20096;-66
2023/01/18 11:24:25;;;;;;;7.60;1.27;;;;;;;6.87;92.78;98771.19;5053652;28;20395;-67
2023/01/18 11:27:00;;;;;;;11.88;1.60;;;;;;;7.11;91.83;98767.59;5052551;28;20055;-67
2023/01/18 11:29:49;;;;;;;9.95;1.55;;;;;;;7.00;91.83;98777.19;5053758;28;20021;-66
2023/01/18 11:32:24;;;;;;;12.80;1.95;;;;;;;7.39;90.47;98767.00;5072475;28;20037;-66
2023/01/18 11:34:55;;;;;;;18.23;2.40;;;;;;;7.48;89.95;98771.00;5072471;28;20047;-67
2023/01/18 11:37:33;;;;;;;16.45;3.08;;;;;;;7.53;89.91;98776.44;5072243;28;20102;-66
2023/01/18 11:40:25;;;;;;;16.40;2.55;;;;;;;7.39;89.73;98758.97;5071249;28;20053;-66
2023/01/18 11:42:57;;;;;;;16.95;2.83;;;;;;;7.57;90.60;98792.06;5070758;28;20040;-66
2023/01/18 11:45:34;;;;;;;12.48;2.85;;;;;;;7.40;90.46;98765.13;5070650;28;20074;-66
2023/01/18 11:48:12;;;;;;;16.15;2.97;;;;;;;7.60;90.63;98797.75;5070593;28;20498;-66
2023/01/18 11:50:52;;;;;;;15.68;2.50;;;;;;;7.58;90.45;98812.41;5053973;28;20056;-66
2023/01/18 11:53:40;;;;;;;12.98;2.70;;;;;;;7.66;90.31;98812.09;5070416;28;20107;-66
2023/01/18 11:56:12;;;;;;;19.35;3.20;;;;;;;7.76;89.59;98809.69;5070510;28;20024;-66
2023/01/18 11:58:39;;;;;;;20.00;2.78;;;;;;;7.66;89.69;98826.28;5069656;28;20233;-66
2023/01/18 12:01:21;;;;;;;12.32;2.25;;;;;;;7.82;89.19;98824.81;5071211;28;20028;-66
2023/01/18 12:04:13;;;;;;;16.10;2.40;;;;;;;7.76;88.92;98823.88;5057577;28;20059;-66
2023/01/18 12:06:44;;;;;;;18.75;2.72;;;;;;;7.79;89.18;98825.28;5052401;28;20031;-66
2023/01/18 12:09:38;;;;;;;15.95;2.50;;;;;;;7.92;88.26;98832.31;5052756;28;20029;-66
2023/01/18 12:12:27;;;;;;;16.00;2.20;;;;;;;7.93;88.84;98828.56;5044200;28;20033;-66
2023/01/18 12:15:19;;;;;;;18.67;2.00;;;;;;;8.04;88.21;98834.97;5053686;28;20080;-67
2023/01/18 12:18:05;;;;;;;13.13;2.45;;;;;;;8.02;87.55;98842.44;5053317;28;20053;-66
2023/01/18 12:20:47;;;;;;;14.07;1.67;;;;;;;7.97;87.49;98833.22;5052888;28;20029;-66
2023/01/18 12:23:21;;;;;;;9.25;1.77;;;;;;;8.02;87.75;98843.25;5054129;28;20021;-66
2023/01/18 12:26:01;;;;;;;13.32;2.42;;;;;;;8.20;86.45;98851.19;5053111;28;20431;-66
2023/01/18 12:28:53;;;;;;;19.58;2.20;;;;;;;8.14;85.93;98849.44;5053811;28;20029;-66
2023/01/18 12:31:37;;;;;;;10.40;1.33;;;;;;;8.10;86.19;98850.13;5053415;28;20060;-66